createdAt,value
2023-04-14T00:02:22.348Z,9.65
2023-04-14T00:04:48.882Z,9.25
2023-04-14T00:07:15.280Z,10.00
2023-04-14T00:09:41.654Z,9.57
2023-04-14T00:12:07.965Z,10.43
2023-04-14T00:14:34.324Z,10.35
2023-04-14T00:17:00.741Z,9.02
2023-04-14T00:19:27.113Z,9.65
2023-04-14T00:21:53.438Z,9.80
2023-04-14T00:24:19.788Z,9.95
2023-04-14T00:26:46.245Z,9.80
2023-04-14T00:29:12.560Z,10.40
2023-04-14T00:31:40.739Z,9.93
2023-04-14T00:34:07.104Z,10.82
2023-04-14T00:36:33.432Z,10.75
2023-04-14T00:39:00.612Z,9.98
2023-04-14T00:41:27.080Z,10.15
2023-04-14T00:43:53.477Z,10.70
2023-04-14T00:46:19.984Z,10.20
2023-04-14T00:48:46.302Z,9.63
2023-04-14T00:51:12.603Z,9.38
2023-04-14T00:53:39.800Z,10.65
2023-04-14T00:56:06.216Z,10.55
2023-04-14T00:58:32.556Z,10.30
2023-04-14T01:01:00.137Z,11.30
2023-04-14T01:03:26.596Z,10.73
2023-04-14T01:05:53.024Z,10.32
2023-04-14T01:08:19.436Z,10.75
2023-04-14T01:10:45.757Z,10.25
2023-04-14T01:13:12.101Z,11.05
2023-04-14T01:15:38.518Z,10.65
2023-04-14T01:18:05.475Z,12.05
2023-04-14T01:20:31.882Z,12.18
2023-04-14T01:22:58.241Z,11.90
2023-04-14T01:25:24.590Z,11.43
2023-04-14T01:27:50.915Z,11.75
2023-04-14T01:30:17.312Z,12.07
2023-04-14T01:32:43.651Z,11.55
2023-04-14T01:35:09.987Z,12.38
2023-04-14T01:37:36.380Z,12.30
2023-04-14T01:40:02.717Z,12.10
2023-04-14T01:42:30.195Z,12.77
2023-04-14T01:44:56.685Z,12.10
2023-04-14T01:47:23.015Z,11.80
2023-04-14T01:49:49.405Z,12.43
2023-04-14T01:52:15.768Z,12.48
2023-04-14T01:54:42.118Z,12.35
2023-04-14T01:57:09.350Z,12.25
2023-04-14T01:59:35.851Z,12.45
2023-04-14T02:02:03.120Z,12.27
2023-04-14T02:04:30.397Z,10.40
2023-04-14T02:06:56.914Z,11.13
2023-04-14T02:09:23.221Z,10.57
2023-04-14T02:11:49.550Z,10.25
2023-04-14T02:14:16.112Z,10.50
2023-04-14T02:16:42.468Z,10.95
2023-04-14T02:19:08.822Z,10.35
2023-04-14T02:21:35.189Z,10.82
2023-04-14T02:24:01.962Z,10.75
2023-04-14T02:26:30.876Z,10.32
2023-04-14T02:28:57.884Z,10.20
2023-04-14T02:31:24.356Z,10.23
2023-04-14T02:33:50.740Z,9.10
2023-04-14T02:36:17.102Z,9.50
2023-04-14T02:38:43.398Z,8.98
2023-04-14T02:41:09.734Z,9.05
2023-04-14T02:43:36.102Z,8.93
2023-04-14T02:46:02.940Z,8.80
2023-04-14T02:48:29.457Z,8.35
2023-04-14T02:50:56.472Z,9.50
2023-04-14T02:53:25.300Z,9.48
2023-04-14T02:56:00.843Z,8.80
2023-04-14T02:58:31.311Z,8.82
2023-04-14T03:00:58.115Z,8.52
2023-04-14T03:03:24.796Z,9.18
2023-04-14T03:05:51.233Z,9.65
2023-04-14T03:08:17.531Z,8.90
2023-04-14T03:10:47.261Z,8.90
2023-04-14T03:13:15.912Z,9.45
2023-04-14T03:15:42.395Z,10.05
2023-04-14T03:18:09.016Z,9.70
2023-04-14T03:20:36.134Z,8.90
2023-04-14T03:23:03.253Z,10.00
2023-04-14T03:25:31.751Z,8.80
2023-04-14T03:27:59.091Z,9.63
2023-04-14T03:30:26.614Z,9.15
2023-04-14T03:32:53.222Z,9.10
2023-04-14T03:35:19.773Z,8.85
2023-04-14T03:37:46.165Z,8.93
2023-04-14T03:40:12.524Z,8.48
2023-04-14T03:42:40.548Z,9.25
2023-04-14T03:45:07.225Z,9.57
2023-04-14T03:47:36.772Z,9.52
2023-04-14T03:50:03.893Z,10.57
2023-04-14T03:52:32.382Z,9.93
2023-04-14T03:54:58.815Z,17.90
2023-04-14T03:57:25.260Z,15.23
2023-04-14T03:59:51.716Z,14.75
2023-04-14T04:02:21.703Z,13.25
2023-04-14T04:04:48.192Z,12.68
2023-04-14T04:07:14.742Z,12.65
2023-04-14T04:09:41.228Z,12.63
2023-04-14T04:12:07.720Z,12.25
2023-04-14T04:14:35.504Z,12.95
2023-04-14T04:17:03.621Z,12.77
2023-04-14T04:19:30.347Z,12.15
2023-04-14T04:21:56.871Z,12.38
2023-04-14T04:24:23.430Z,11.43
2023-04-14T04:26:50.521Z,12.85
2023-04-14T04:29:17.015Z,12.68
2023-04-14T04:31:43.548Z,12.43
2023-04-14T04:34:10.103Z,14.88
2023-04-14T04:36:38.096Z,18.95
2023-04-14T04:39:04.698Z,20.40
2023-04-14T04:41:35.809Z,19.60
2023-04-14T04:44:02.912Z,18.02
2023-04-14T04:46:29.503Z,17.75
2023-04-14T04:48:57.782Z,16.33
2023-04-14T04:51:25.292Z,16.13
2023-04-14T04:53:51.755Z,15.18
2023-04-14T04:56:18.326Z,23.00
2023-04-14T04:58:45.013Z,17.35
2023-04-14T05:01:11.922Z,18.45
2023-04-14T05:03:38.374Z,16.52
2023-04-14T05:06:04.868Z,15.60
2023-04-14T05:08:31.420Z,16.08
2023-04-14T05:10:57.908Z,15.30
2023-04-14T05:13:24.310Z,14.18
2023-04-14T05:15:50.866Z,14.48
2023-04-14T05:18:17.331Z,13.73
2023-04-14T05:20:43.709Z,14.50
2023-04-14T05:23:10.203Z,12.40
2023-04-14T05:25:36.655Z,12.95
2023-04-14T05:28:03.083Z,12.25
2023-04-14T05:30:29.532Z,13.45
2023-04-14T05:32:55.973Z,12.68
2023-04-14T05:35:22.501Z,12.27
2023-04-14T05:37:48.993Z,11.32
2023-04-14T05:40:15.400Z,11.20
2023-04-14T05:42:41.837Z,11.40
2023-04-14T05:45:08.378Z,24.27
2023-04-14T05:47:34.789Z,22.05
2023-04-14T05:50:01.383Z,17.30
2023-04-14T05:52:27.891Z,14.70
2023-04-14T05:54:54.302Z,21.35
2023-04-14T05:57:20.780Z,26.23
2023-04-14T05:59:47.264Z,21.42
2023-04-14T06:02:13.748Z,16.90
2023-04-14T06:04:40.374Z,16.00
2023-04-14T06:07:06.895Z,13.75
2023-04-14T06:09:33.286Z,14.88
2023-04-14T06:11:59.826Z,13.25
2023-04-14T06:14:26.309Z,15.00
2023-04-14T06:16:52.789Z,27.80
2023-04-14T06:19:19.297Z,21.73
2023-04-14T06:21:45.714Z,26.08
2023-04-14T06:24:12.085Z,25.45
2023-04-14T06:26:38.424Z,18.27
2023-04-14T06:29:04.836Z,24.98
2023-04-14T06:31:31.228Z,23.95
2023-04-14T06:33:57.624Z,26.50
2023-04-14T06:36:24.044Z,26.88
2023-04-14T06:38:50.402Z,20.38
2023-04-14T06:41:16.773Z,17.75
2023-04-14T06:43:43.164Z,17.15
2023-04-14T06:46:09.598Z,16.65
2023-04-14T06:48:35.964Z,15.80
2023-04-14T06:51:02.353Z,14.45
2023-04-14T06:53:28.790Z,15.48
2023-04-14T06:55:55.165Z,15.30
2023-04-14T06:58:21.639Z,13.70
2023-04-14T07:00:49.454Z,14.75
2023-04-14T07:03:15.862Z,17.38
2023-04-14T07:05:42.319Z,17.83
2023-04-14T07:08:08.666Z,16.30
2023-04-14T07:10:35.061Z,29.83
2023-04-14T07:13:01.628Z,27.08
2023-04-14T07:15:27.986Z,23.38
2023-04-14T07:17:54.385Z,25.23
2023-04-14T07:20:20.809Z,22.15
2023-04-14T07:22:47.178Z,27.70
2023-04-14T07:25:13.518Z,19.38
2023-04-14T07:27:47.146Z,18.05
2023-04-14T07:30:19.270Z,16.20
2023-04-14T07:32:45.682Z,16.52
2023-04-14T07:35:12.118Z,14.77
2023-04-14T07:37:38.490Z,16.35
2023-04-14T07:40:04.901Z,15.60
2023-04-14T07:42:31.239Z,15.18
2023-04-14T07:44:57.598Z,17.67
2023-04-14T07:47:24.049Z,16.45
2023-04-14T07:49:50.420Z,16.50
2023-04-14T07:52:16.789Z,15.35
2023-04-14T07:54:43.238Z,13.88
2023-04-14T07:57:09.610Z,14.43
2023-04-14T07:59:36.117Z,14.93
2023-04-14T08:02:02.678Z,14.82
2023-04-14T08:04:29.158Z,15.10
2023-04-14T08:06:55.608Z,14.02
2023-04-14T08:09:21.994Z,23.38
2023-04-14T08:11:48.331Z,17.05
2023-04-14T08:14:14.639Z,17.83
2023-04-14T08:16:41.081Z,21.40
2023-04-14T08:19:07.472Z,25.15
2023-04-14T08:21:33.860Z,24.48
2023-04-14T08:24:00.313Z,24.42
2023-04-14T08:26:26.690Z,25.08
2023-04-14T08:28:53.056Z,24.95
2023-04-14T08:31:19.506Z,22.40
2023-04-14T08:33:45.922Z,24.77
2023-04-14T08:36:12.594Z,23.92
2023-04-14T08:38:39.018Z,24.05
2023-04-14T08:41:05.377Z,26.42
2023-04-14T08:43:31.725Z,25.65
2023-04-14T08:45:58.173Z,24.40
2023-04-14T08:48:25.646Z,24.02
2023-04-14T08:50:52.072Z,24.00
2023-04-14T08:53:18.547Z,20.55
2023-04-14T08:55:44.964Z,19.27
2023-04-14T08:58:11.414Z,17.75
2023-04-14T09:00:37.844Z,16.13
2023-04-14T09:03:04.392Z,16.58
2023-04-14T09:05:31.120Z,15.68
2023-04-14T09:07:57.563Z,15.18
2023-04-14T09:10:23.930Z,15.07
2023-04-14T09:12:50.389Z,13.05
2023-04-14T09:15:16.794Z,13.95
2023-04-14T09:17:43.144Z,12.15
2023-04-14T09:20:37.961Z,14.13
2023-04-14T09:22:55.981Z,12.13
2023-04-14T09:25:22.415Z,12.50
2023-04-14T09:27:48.802Z,12.27
2023-04-14T09:30:15.259Z,11.52
2023-04-14T09:32:41.733Z,12.43
2023-04-14T09:35:08.149Z,12.90
2023-04-14T09:37:34.614Z,13.50
2023-04-14T09:40:01.034Z,12.45
2023-04-14T09:42:27.411Z,11.93
2023-04-14T09:44:53.844Z,15.23
2023-04-14T09:47:20.245Z,20.13
2023-04-14T09:49:46.612Z,18.70
2023-04-14T09:52:13.084Z,17.15
2023-04-14T09:54:39.449Z,15.27
2023-04-14T09:57:05.805Z,20.92
2023-04-14T09:59:32.239Z,25.60
2023-04-14T10:01:58.845Z,23.02
2023-04-14T10:04:25.296Z,20.80
2023-04-14T10:06:51.762Z,17.45
2023-04-14T10:09:18.174Z,18.52
2023-04-14T10:11:44.547Z,16.00
2023-04-14T10:14:11.013Z,15.18
2023-04-14T10:16:37.435Z,22.48
2023-04-14T10:19:04.197Z,26.45
2023-04-14T10:21:30.939Z,25.08
2023-04-14T10:23:57.338Z,23.05
2023-04-14T10:26:23.732Z,23.77
2023-04-14T10:28:50.140Z,23.48
2023-04-14T10:31:16.512Z,22.27
2023-04-14T10:33:42.880Z,23.67
2023-04-14T10:36:09.275Z,22.92
2023-04-14T10:38:35.666Z,22.63
2023-04-14T10:41:02.049Z,22.27
2023-04-14T10:43:28.474Z,22.65
2023-04-14T10:45:54.883Z,22.38
2023-04-14T10:48:21.279Z,24.50
2023-04-14T10:50:47.757Z,22.20
2023-04-14T10:53:14.126Z,22.30
2023-04-14T10:55:51.724Z,21.48
2023-04-14T10:58:19.032Z,22.88
2023-04-14T11:00:45.457Z,21.65
2023-04-14T11:03:12.096Z,21.67
2023-04-14T11:05:38.878Z,22.80
2023-04-14T11:08:05.340Z,21.98
2023-04-14T11:10:31.728Z,21.98
2023-04-14T11:12:58.081Z,21.95
2023-04-14T11:15:24.440Z,22.58
2023-04-14T11:17:50.855Z,22.27
2023-04-14T11:20:17.363Z,22.00
2023-04-14T11:22:43.793Z,27.10
2023-04-14T11:25:10.138Z,24.58
2023-04-14T11:27:36.608Z,23.23
2023-04-14T11:30:02.977Z,23.02
2023-04-14T11:32:29.387Z,22.63
2023-04-14T11:34:55.782Z,22.48
2023-04-14T11:37:22.838Z,23.83
2023-04-14T11:39:49.380Z,22.23
2023-04-14T11:42:15.767Z,22.35
2023-04-14T11:44:42.191Z,18.67
2023-04-14T11:47:08.579Z,17.33
2023-04-14T11:49:34.995Z,16.23
2023-04-14T11:52:01.414Z,14.25
2023-04-14T11:54:27.925Z,15.02
2023-04-14T11:56:54.377Z,12.10
2023-04-14T11:59:20.742Z,13.82
2023-04-14T12:01:47.170Z,12.40
2023-04-14T12:04:13.716Z,11.50
2023-04-14T12:06:40.122Z,10.27
2023-04-14T12:09:06.536Z,10.02
2023-04-14T12:11:32.938Z,11.00
2023-04-14T12:13:59.324Z,10.80
2023-04-14T12:16:25.708Z,10.57
2023-04-14T12:18:52.122Z,10.82
2023-04-14T12:21:18.523Z,11.80
2023-04-14T12:23:44.853Z,23.85
2023-04-14T12:26:11.282Z,31.27
2023-04-14T12:28:37.665Z,26.95
2023-04-14T12:31:04.227Z,23.23
2023-04-14T12:33:30.746Z,21.17
2023-04-14T12:35:57.124Z,19.25
2023-04-14T12:38:23.596Z,20.02
2023-04-14T12:40:49.997Z,17.48
2023-04-14T12:43:16.368Z,16.25
2023-04-14T12:45:42.816Z,16.13
2023-04-14T12:48:09.232Z,15.73
2023-04-14T12:50:35.597Z,14.40
2023-04-14T12:53:01.951Z,14.50
2023-04-14T12:55:28.354Z,15.38
2023-04-14T12:57:54.791Z,13.60
2023-04-14T13:00:21.095Z,14.50
2023-04-14T13:02:47.602Z,13.40
2023-04-14T13:05:14.040Z,12.90
2023-04-14T13:07:40.405Z,12.10
2023-04-14T13:10:06.866Z,13.93
2023-04-14T13:12:33.226Z,21.25
2023-04-14T13:14:59.603Z,26.45
2023-04-14T13:17:26.213Z,84.65
2023-04-14T13:19:52.790Z,48.58
2023-04-14T13:22:19.119Z,41.17
2023-04-14T13:24:45.518Z,32.35
2023-04-14T13:27:11.899Z,30.77
2023-04-14T13:29:39.700Z,28.67
2023-04-14T13:32:07.522Z,29.10
2023-04-14T13:34:33.986Z,29.42
2023-04-14T13:37:00.427Z,29.45
2023-04-14T13:39:26.812Z,29.70
2023-04-14T13:41:53.151Z,28.17
2023-04-14T13:44:19.540Z,25.90
2023-04-14T13:46:46.145Z,24.83
2023-04-14T13:49:12.566Z,23.85
2023-04-14T13:51:38.968Z,23.10
2023-04-14T13:54:05.356Z,23.75
2023-04-14T13:56:31.762Z,21.17
2023-04-14T13:58:58.108Z,21.75
2023-04-14T14:01:24.540Z,21.30
2023-04-14T14:03:51.146Z,20.38
2023-04-14T14:06:17.675Z,20.75
2023-04-14T14:08:44.027Z,19.50
2023-04-14T14:11:10.401Z,20.52
2023-04-14T14:13:36.928Z,19.88
2023-04-14T14:16:03.443Z,19.35
2023-04-14T14:18:29.855Z,19.50
2023-04-14T14:20:56.186Z,19.23
2023-04-14T14:23:22.627Z,18.60
2023-04-14T14:25:48.943Z,18.33
2023-04-14T14:28:15.238Z,18.08
2023-04-14T14:30:41.668Z,17.25
2023-04-14T14:33:07.997Z,17.65
2023-04-14T14:35:34.320Z,17.23
2023-04-14T14:38:01.017Z,17.02
2023-04-14T14:40:27.361Z,16.48
2023-04-14T14:42:53.696Z,16.48
2023-04-14T14:45:30.307Z,16.27
2023-04-14T14:47:57.125Z,15.70
2023-04-14T14:50:23.580Z,15.75
2023-04-14T14:52:49.838Z,16.50
2023-04-14T14:55:16.157Z,15.93
2023-04-14T14:57:42.605Z,15.88
2023-04-14T15:00:08.903Z,15.65
2023-04-14T15:02:35.384Z,15.57
2023-04-14T15:05:01.888Z,15.38
2023-04-14T15:07:28.221Z,14.95
2023-04-14T15:09:54.534Z,15.20
2023-04-14T15:12:20.965Z,15.48
2023-04-14T15:14:47.298Z,14.95
2023-04-14T15:17:13.653Z,15.40
2023-04-14T15:19:41.335Z,15.27
2023-04-14T15:22:08.323Z,14.30
2023-04-14T15:24:34.649Z,14.43
2023-04-14T15:27:01.010Z,14.43
2023-04-14T15:29:27.322Z,14.73
2023-04-14T15:31:53.697Z,14.10
2023-04-14T15:34:20.091Z,14.18
2023-04-14T15:36:46.397Z,14.00
2023-04-14T15:39:12.751Z,14.15
2023-04-14T15:41:39.148Z,14.20
2023-04-14T15:44:05.495Z,13.88
2023-04-14T15:46:31.927Z,13.75
2023-04-14T15:48:58.443Z,13.27
2023-04-14T15:51:24.763Z,13.40
2023-04-14T15:53:51.077Z,13.10
2023-04-14T15:56:17.488Z,14.35
2023-04-14T15:58:43.833Z,13.65
2023-04-14T16:01:10.201Z,13.20
2023-04-14T16:03:36.973Z,13.27
2023-04-14T16:06:03.438Z,13.40
2023-04-14T16:08:29.784Z,13.52
2023-04-14T16:10:56.199Z,12.57
2023-04-14T16:13:22.558Z,12.43
2023-04-14T16:15:48.945Z,13.48
2023-04-14T16:18:15.375Z,12.13
2023-04-14T16:20:41.696Z,12.50
2023-04-14T16:23:08.018Z,12.57
2023-04-14T16:25:34.443Z,12.63
2023-04-14T16:28:00.832Z,12.02
2023-04-14T16:30:27.199Z,12.50
2023-04-14T16:32:53.653Z,12.25
2023-04-14T16:35:20.008Z,12.75
2023-04-14T16:37:46.307Z,12.43
2023-04-14T16:40:12.664Z,11.75
2023-04-14T16:42:38.991Z,11.85
2023-04-14T16:45:05.305Z,10.95
2023-04-14T16:47:31.716Z,12.32
2023-04-14T16:49:58.065Z,11.80
2023-04-14T16:52:24.371Z,11.15
2023-04-14T16:54:50.738Z,11.57
2023-04-14T16:57:17.071Z,11.63
2023-04-14T16:59:43.373Z,12.20
2023-04-14T17:02:09.844Z,11.70
2023-04-14T17:04:36.434Z,11.52
2023-04-14T17:07:03.010Z,11.55
2023-04-14T17:09:29.421Z,11.50
2023-04-14T17:11:55.768Z,11.57
2023-04-14T17:14:22.141Z,11.00
2023-04-14T17:16:48.602Z,11.05
2023-04-14T17:19:15.012Z,11.18
2023-04-14T17:21:41.364Z,10.95
2023-04-14T17:24:07.883Z,11.20
2023-04-14T17:26:34.193Z,12.30
2023-04-14T17:29:00.767Z,10.90
2023-04-14T17:31:27.469Z,10.80
2023-04-14T17:33:53.795Z,10.50
2023-04-14T17:36:20.121Z,11.02
2023-04-14T17:38:46.540Z,11.05
2023-04-14T17:41:13.122Z,11.55
2023-04-14T17:43:39.640Z,11.48
2023-04-14T17:46:06.013Z,12.00
2023-04-14T17:48:32.376Z,10.55
2023-04-14T17:50:58.684Z,11.05
2023-04-14T17:53:24.992Z,10.57
2023-04-14T17:55:51.324Z,10.52
2023-04-14T17:58:17.713Z,10.55
2023-04-14T18:00:44.176Z,10.13
2023-04-14T18:03:10.633Z,11.23
2023-04-14T18:05:37.030Z,10.20
2023-04-14T18:08:03.414Z,10.38
2023-04-14T18:10:29.737Z,11.00
2023-04-14T18:12:56.062Z,12.00
2023-04-14T18:15:22.486Z,10.35
2023-04-14T18:17:48.823Z,10.35
2023-04-14T18:20:15.231Z,9.98
2023-04-14T18:22:41.634Z,11.02
2023-04-14T18:25:08.085Z,10.60
2023-04-14T18:30:03.668Z,10.85
2023-04-14T18:32:30.008Z,10.05
2023-04-14T18:34:56.361Z,12.48
2023-04-14T18:37:22.724Z,11.95
2023-04-14T18:39:49.011Z,11.90
2023-04-14T18:42:15.361Z,12.48
2023-04-14T18:44:41.774Z,10.98
2023-04-14T18:47:08.065Z,10.55
2023-04-14T18:49:34.358Z,10.85
2023-04-14T18:52:00.715Z,10.88
2023-04-14T18:54:27.037Z,10.25
2023-04-14T18:56:53.347Z,10.35
2023-04-14T18:59:20.262Z,10.95
2023-04-14T19:01:46.897Z,10.75
2023-04-14T19:04:13.331Z,10.35
2023-04-14T19:06:39.701Z,9.95
2023-04-14T19:09:06.019Z,10.18
2023-04-14T19:11:32.360Z,10.70
2023-04-14T19:13:58.724Z,10.05
2023-04-14T19:16:25.038Z,10.05
2023-04-14T19:18:51.367Z,10.20
2023-04-14T19:21:17.747Z,10.43
2023-04-14T19:23:44.052Z,10.45
2023-04-14T19:26:10.363Z,10.00
2023-04-14T19:28:36.722Z,10.52
2023-04-14T19:31:03.097Z,9.98
2023-04-14T19:33:29.604Z,9.90
2023-04-14T19:35:55.952Z,9.90
2023-04-14T19:38:22.265Z,10.93
2023-04-14T19:40:48.581Z,9.85
2023-04-14T19:43:15.136Z,10.38
2023-04-14T19:45:41.494Z,10.32
2023-04-14T19:48:22.180Z,10.60
2023-04-14T19:50:50.045Z,10.50
2023-04-14T19:53:16.343Z,10.35
2023-04-14T19:55:42.681Z,10.20
2023-04-14T19:58:09.033Z,10.80
2023-04-14T20:00:35.465Z,10.63
2023-04-14T20:03:01.816Z,10.70
2023-04-14T20:05:28.242Z,10.25
2023-04-14T20:07:54.602Z,9.90
2023-04-14T20:10:20.967Z,9.88
2023-04-14T20:12:47.348Z,10.32
2023-04-14T20:15:13.783Z,10.13
2023-04-14T20:17:40.186Z,9.82
2023-04-14T20:20:06.559Z,10.13
2023-04-14T20:22:32.892Z,10.48
2023-04-14T20:24:59.232Z,10.68
2023-04-14T20:27:25.709Z,10.35
2023-04-14T20:29:52.038Z,11.15
2023-04-14T20:32:18.378Z,11.40
2023-04-14T20:34:44.786Z,11.30
2023-04-14T20:37:11.109Z,12.07
2023-04-14T20:39:37.434Z,10.90
2023-04-14T20:42:03.805Z,10.68
2023-04-14T20:44:30.164Z,11.60
2023-04-14T20:46:56.476Z,10.90
2023-04-14T20:49:22.843Z,11.57
2023-04-14T20:51:49.150Z,10.98
2023-04-14T20:54:15.460Z,11.85
2023-04-14T20:56:41.811Z,11.98
2023-04-14T20:59:08.149Z,11.98
2023-04-14T21:01:34.617Z,11.45
2023-04-14T21:04:01.403Z,12.18
2023-04-14T21:06:27.828Z,11.52
2023-04-14T21:08:54.282Z,12.27
2023-04-14T21:11:20.696Z,11.77
2023-04-14T21:15:26.615Z,12.60
2023-04-14T21:16:33.384Z,12.02
2023-04-14T21:19:00.148Z,11.98
2023-04-14T21:21:26.854Z,11.32
2023-04-14T21:23:53.229Z,11.10
2023-04-14T21:26:19.656Z,12.00
2023-04-14T21:28:46.128Z,12.27
2023-04-14T21:31:12.598Z,11.32
2023-04-14T21:33:38.969Z,12.07
2023-04-14T21:36:05.291Z,11.65
2023-04-14T21:38:31.661Z,11.27
2023-04-14T21:40:57.972Z,11.75
2023-04-14T21:43:24.287Z,12.23
2023-04-14T21:45:50.670Z,11.23
2023-04-14T21:48:17.116Z,11.70
2023-04-14T21:50:43.448Z,12.02
2023-04-14T21:53:09.825Z,12.23
2023-04-14T21:55:36.130Z,12.02
2023-04-14T21:58:02.470Z,11.82
2023-04-14T22:00:28.846Z,12.13
2023-04-14T22:02:55.324Z,11.82
2023-04-14T22:05:21.817Z,11.90
2023-04-14T22:07:48.188Z,11.40
2023-04-14T22:10:14.516Z,12.27
2023-04-14T22:12:40.844Z,12.55
2023-04-14T22:15:07.230Z,12.15
2023-04-14T22:17:33.563Z,12.30
2023-04-14T22:19:59.899Z,11.93
2023-04-14T22:22:26.319Z,12.13
2023-04-14T22:24:52.633Z,12.05
2023-04-14T22:27:18.961Z,12.30
2023-04-14T22:29:45.343Z,12.48
2023-04-14T22:32:11.667Z,12.15
2023-04-14T22:34:38.114Z,12.10
2023-04-14T22:37:04.460Z,11.60
2023-04-14T22:39:30.784Z,12.10
2023-04-14T22:41:57.097Z,11.65
2023-04-14T22:44:23.469Z,11.55
2023-04-14T22:46:49.771Z,11.68
2023-04-14T22:49:16.087Z,10.80
2023-04-14T22:51:42.450Z,10.77
2023-04-14T22:54:08.795Z,10.10
2023-04-14T22:56:35.253Z,10.00
2023-04-14T22:59:01.900Z,10.15
2023-04-14T23:01:28.477Z,9.60
2023-04-14T23:03:55.014Z,9.75
2023-04-14T23:06:21.462Z,9.68
2023-04-14T23:08:47.765Z,9.18
2023-04-14T23:11:14.159Z,8.90
2023-04-14T23:13:40.542Z,8.73
2023-04-14T23:16:06.893Z,8.93
2023-04-14T23:18:33.314Z,9.10
2023-04-14T23:20:59.669Z,8.63
2023-04-14T23:23:25.963Z,8.35
2023-04-14T23:25:52.375Z,8.48
2023-04-14T23:28:18.730Z,7.63
2023-04-14T23:30:45.108Z,7.40
2023-04-14T23:33:11.572Z,7.63
2023-04-14T23:35:37.943Z,8.02
2023-04-14T23:38:04.275Z,6.90
2023-04-14T23:40:30.664Z,7.47
2023-04-14T23:42:57.026Z,7.28
2023-04-14T23:45:23.349Z,7.03
2023-04-14T23:47:49.739Z,6.90
2023-04-14T23:50:16.116Z,6.85
2023-04-14T23:52:42.563Z,6.97
2023-04-14T23:55:08.900Z,6.70
2023-04-14T23:57:35.281Z,7.00
